NSCO2: Spavinaw Creek nr Eucha OK

Data processed at Mon 03Oct2022 03:14 GMT


All information presented herein is the property of the government of the United States of America and may be revised or deleted at any time without prior notice.
Dissemination of this information without the expressed written consent of the Public Affairs Office, Tulsa District U.S. Army Corps of Engineers is strictly prohibited.
These data are gathered electronically and, as presented, have not undergone any form of quality control. These data are not guaranteed to be valid or correct.
Go to home page.
Go to station list.

Upstream stations:

Downstream station:
Previous Day
Next Day
Current Day


                            
SHEF ID:       NSCO2     Spavinaw Creek near Eucha, OK
STATION TYPE:  

                STAGE  STAGE(2)  RIV-FLOW  WTR-TEMP   DIS-OXY  BAT-LOAD
                   ft        ft       cfs         F      mg/l      volt
              Ccp-Rev   Ccp-Rev   Ccp-Rev   Ccp-Rev   Ccp-Rev   Ccp-Rev
(US/Central)
10/02 00:00      7.81      7.91       140     37.40     12.33      ----
10/02 01:00      7.82      7.91       143     37.40      8.03      ----
10/02 02:00      7.82      7.91       143     37.40     12.33      ----
10/02 03:00      7.86      7.92       152     37.40     12.25      ----
10/02 04:00      7.82      7.91       143     37.40     12.25      ----
10/02 05:00      7.81      7.91       140     37.40     12.25      ----
10/02 06:00      7.81      7.92       140     37.40     12.17      ----
10/02 07:00      7.81      7.91       140     37.40     12.17      ----
10/02 08:00      7.81      7.92       140     37.40     12.17      ----
10/02 09:00      7.80      7.92       138     37.40     12.17      ----
10/02 10:00      7.81      7.91       140     37.40     12.49      ----
10/02 11:00      7.81      7.91       140     37.40     12.81      ----
10/02 12:00      7.82      7.89       143     37.40     12.81      ----
10/02 13:00      7.81      7.89       140     37.40     12.89      ----
10/02 14:00      7.82      7.88       143     37.40     12.89      ----
10/02 15:00      7.82      7.88       143     37.40     12.81      ----
10/02 16:00      7.82      7.87       143     37.40     12.65      ----
10/02 17:00      7.80      7.88       138     37.40     12.73      ----
10/02 18:00      7.81      7.89       140     37.40     12.49      ----
10/02 19:00      7.80      7.89       138     37.40     12.41      ----
10/02 20:00      7.80      7.89       138     37.40     12.41      ----
10/02 21:00      7.81      7.90       140     37.40     12.41      ----
10/02 22:00      7.80      7.89       138     73.53      8.02      ----
10/02 23:00      ----      ----      ----      ----      ----      ----